createdAt,value
2022-08-04T00:01:19.921Z,11.93
2022-08-04T00:04:00.515Z,12.57
2022-08-04T00:07:09.530Z,11.93
2022-08-04T00:10:00.364Z,13.13
2022-08-04T00:12:37.863Z,13.00
2022-08-04T00:15:14.892Z,12.23
2022-08-04T00:17:53.758Z,13.43
2022-08-04T00:20:24.139Z,13.45
2022-08-04T00:22:52.986Z,13.05
2022-08-04T00:25:21.496Z,13.50
2022-08-04T00:27:50.006Z,12.77
2022-08-04T00:30:18.837Z,13.02
2022-08-04T00:32:47.632Z,13.73
2022-08-04T00:35:17.059Z,13.60
2022-08-04T00:37:46.191Z,12.73
2022-08-04T00:40:25.518Z,12.95
2022-08-04T00:43:06.479Z,12.27
2022-08-04T00:46:17.062Z,13.23
2022-08-04T00:49:12.040Z,14.48
2022-08-04T00:52:32.786Z,13.35
2022-08-04T00:55:20.361Z,14.30
2022-08-04T00:58:07.017Z,13.45
2022-08-04T01:01:04.802Z,13.63
2022-08-04T01:04:03.600Z,13.15
2022-08-04T01:07:18.439Z,12.93
2022-08-04T01:10:17.369Z,14.35
2022-08-04T01:13:01.505Z,14.77
2022-08-04T01:16:03.177Z,13.02
2022-08-04T01:18:53.144Z,13.40
2022-08-04T01:21:38.373Z,14.38
2022-08-04T01:24:19.025Z,13.75
2022-08-04T01:29:46.801Z,14.45
2022-08-04T01:32:25.360Z,15.32
2022-08-04T01:35:15.274Z,14.68
2022-08-04T01:38:02.758Z,14.30
2022-08-04T01:40:48.734Z,14.85
2022-08-04T01:43:17.505Z,13.85
2022-08-04T01:45:51.168Z,13.60
2022-08-04T01:48:27.470Z,13.75
2022-08-04T01:51:07.465Z,15.38
2022-08-04T01:53:38.966Z,15.55
2022-08-04T01:56:09.020Z,16.77
2022-08-04T01:58:39.572Z,14.70
2022-08-04T02:01:13.363Z,16.40
2022-08-04T02:04:19.996Z,16.08
2022-08-04T02:06:58.269Z,15.52
2022-08-04T02:09:54.300Z,15.25
2022-08-04T02:12:34.420Z,14.85
2022-08-04T02:15:28.661Z,15.68
2022-08-04T02:18:43.424Z,15.32
2022-08-04T02:21:16.498Z,16.98
2022-08-04T02:23:47.354Z,14.25
2022-08-04T02:26:22.114Z,15.80
2022-08-04T02:29:04.702Z,15.80
2022-08-04T02:31:48.688Z,16.75
2022-08-04T02:34:29.756Z,15.82
2022-08-04T02:37:00.786Z,16.17
2022-08-04T02:39:47.926Z,16.70
2022-08-04T02:42:19.385Z,16.48
2022-08-04T02:44:52.127Z,15.82
2022-08-04T02:47:22.734Z,15.43
2022-08-04T02:49:53.221Z,16.92
2022-08-04T02:52:26.462Z,15.13
2022-08-04T02:54:58.671Z,16.77
2022-08-04T02:57:32.223Z,15.70
2022-08-04T03:00:11.997Z,16.70
2022-08-04T03:02:43.265Z,16.80
2022-08-04T03:05:20.671Z,17.35
2022-08-04T03:08:31.300Z,16.05
2022-08-04T03:11:06.358Z,15.57
2022-08-04T03:13:56.882Z,15.77
2022-08-04T03:16:50.481Z,15.55
2022-08-04T03:19:50.976Z,16.95
2022-08-04T03:23:06.241Z,16.25
2022-08-04T03:25:37.864Z,16.88
2022-08-04T03:28:34.250Z,15.82
2022-08-04T03:31:23.003Z,15.95
2022-08-04T03:34:07.661Z,15.40
2022-08-04T03:37:03.954Z,16.08
2022-08-04T03:40:13.483Z,17.05
2022-08-04T03:43:58.242Z,15.52
2022-08-04T03:46:13.152Z,17.10
2022-08-04T03:49:18.831Z,15.70
2022-08-04T03:52:08.615Z,16.10
2022-08-04T03:55:00.502Z,16.15
2022-08-04T03:57:47.364Z,17.27
2022-08-04T04:00:33.880Z,17.35
2022-08-04T04:03:28.172Z,16.55
2022-08-04T04:06:03.431Z,16.27
2022-08-04T04:08:53.550Z,16.63
2022-08-04T04:11:54.475Z,15.90
2022-08-04T04:15:04.252Z,15.43
2022-08-04T04:17:58.063Z,15.30
2022-08-04T04:20:31.663Z,14.65
2022-08-04T04:23:00.248Z,15.82
2022-08-04T04:25:36.528Z,16.75
2022-08-04T04:28:47.160Z,15.02
2022-08-04T04:31:30.548Z,16.27
2022-08-04T04:34:27.137Z,17.27
2022-08-04T04:37:19.653Z,16.88
2022-08-04T04:40:11.259Z,17.10
2022-08-04T04:43:06.791Z,17.25
2022-08-04T04:45:56.994Z,17.75
2022-08-04T04:48:37.055Z,19.05
2022-08-04T04:51:24.220Z,18.73
2022-08-04T04:54:26.647Z,18.20
2022-08-04T04:57:08.133Z,17.70
2022-08-04T04:59:46.066Z,17.80
2022-08-04T05:02:40.454Z,17.95
2022-08-04T05:07:54.950Z,16.23
2022-08-04T05:11:00.352Z,15.82
2022-08-04T05:14:35.069Z,14.90
2022-08-04T05:17:06.740Z,14.00
2022-08-04T05:20:01.071Z,13.50
2022-08-04T05:22:40.039Z,13.10
2022-08-04T05:25:29.268Z,12.65
2022-08-04T05:28:20.584Z,12.32
2022-08-04T05:31:00.594Z,11.50
2022-08-04T05:33:53.689Z,11.30
2022-08-04T05:36:40.457Z,11.93
2022-08-04T05:39:25.656Z,13.05
2022-08-04T05:41:58.541Z,13.13
2022-08-04T05:44:34.435Z,13.43
2022-08-04T05:47:04.680Z,12.77
2022-08-04T05:49:35.195Z,12.70
2022-08-04T05:52:05.325Z,11.10
2022-08-04T05:54:38.337Z,11.57
2022-08-04T05:57:08.864Z,11.73
2022-08-04T05:59:39.840Z,13.25
2022-08-04T06:02:10.132Z,11.60
2022-08-04T06:04:41.005Z,11.70
2022-08-04T06:07:11.571Z,12.50
2022-08-04T06:09:40.798Z,12.98
2022-08-04T06:12:15.177Z,13.07
2022-08-04T06:14:46.157Z,11.68
2022-08-04T06:19:56.951Z,11.25
2022-08-04T06:20:20.058Z,11.18
2022-08-04T06:22:56.217Z,10.73
2022-08-04T06:25:28.574Z,11.25
2022-08-04T06:27:59.008Z,11.55
2022-08-04T06:30:28.726Z,12.02
2022-08-04T06:33:03.622Z,12.18
2022-08-04T06:35:34.669Z,13.55
2022-08-04T06:38:03.654Z,12.38
2022-08-04T06:40:34.589Z,12.13
2022-08-04T06:43:06.913Z,12.20
2022-08-04T06:45:38.969Z,11.55
2022-08-04T06:48:08.618Z,14.52
2022-08-04T06:51:28.203Z,13.25
2022-08-04T06:53:27.553Z,13.50
2022-08-04T06:55:57.825Z,12.43
2022-08-04T06:58:28.168Z,13.50
2022-08-04T07:01:02.233Z,12.02
2022-08-04T07:03:32.682Z,11.07
2022-08-04T07:06:05.602Z,10.68
2022-08-04T07:08:36.691Z,10.10
2022-08-04T07:11:06.130Z,11.05
2022-08-04T07:13:34.355Z,10.13
2022-08-04T07:16:03.156Z,12.13
2022-08-04T07:18:32.638Z,12.43
2022-08-04T07:21:00.991Z,11.63
2022-08-04T07:23:29.635Z,11.93
2022-08-04T07:26:12.983Z,11.40
2022-08-04T07:28:42.287Z,12.20
2022-08-04T07:31:34.181Z,11.68
2022-08-04T07:34:16.963Z,10.52
2022-08-04T07:36:53.104Z,11.38
2022-08-04T07:39:28.451Z,11.43
2022-08-04T07:42:03.102Z,10.65
2022-08-04T07:44:35.606Z,11.63
2022-08-04T07:47:06.762Z,10.85
2022-08-04T07:49:56.660Z,10.40
2022-08-04T07:52:26.092Z,10.63
2022-08-04T07:54:55.031Z,12.07
2022-08-04T07:57:39.640Z,12.50
2022-08-04T08:00:16.869Z,12.88
2022-08-04T08:05:19.849Z,12.57
2022-08-04T08:07:54.787Z,12.07
2022-08-04T08:10:28.436Z,12.13
2022-08-04T08:13:01.233Z,11.60
2022-08-04T08:15:29.998Z,11.63
2022-08-04T08:18:00.958Z,11.23
2022-08-04T08:23:03.017Z,12.27
2022-08-04T08:28:10.872Z,12.85
2022-08-04T08:30:41.850Z,12.27
2022-08-04T08:33:18.112Z,15.85
2022-08-04T08:36:43.890Z,14.25
2022-08-04T08:39:39.915Z,13.15
2022-08-04T08:42:23.114Z,11.85
2022-08-04T08:45:06.313Z,12.50
2022-08-04T08:48:05.434Z,13.85
2022-08-04T08:50:46.321Z,13.38
2022-08-04T08:53:36.426Z,12.95
2022-08-04T08:56:13.429Z,13.15
2022-08-04T08:58:56.471Z,13.38
2022-08-04T09:02:02.278Z,12.45
2022-08-04T09:05:09.075Z,12.15
2022-08-04T09:07:51.982Z,14.18
2022-08-04T09:10:36.369Z,14.00
2022-08-04T09:13:33.246Z,13.05
2022-08-04T09:16:41.283Z,13.15
2022-08-04T09:19:38.183Z,11.85
2022-08-04T09:22:32.440Z,12.63
2022-08-04T09:28:55.133Z,12.35
2022-08-04T09:31:49.068Z,12.35
2022-08-04T09:35:06.085Z,11.52
2022-08-04T09:37:46.813Z,10.35
2022-08-04T09:40:31.193Z,10.30
2022-08-04T09:44:42.789Z,9.10
2022-08-04T09:47:09.824Z,9.80
2022-08-04T09:49:54.859Z,10.88
2022-08-04T09:52:37.992Z,10.35
2022-08-04T09:55:12.641Z,9.40
2022-08-04T09:58:10.742Z,8.43
2022-08-04T10:01:03.931Z,8.52
2022-08-04T10:03:44.567Z,8.63
2022-08-04T10:06:35.057Z,7.40
2022-08-04T10:09:36.705Z,7.35
2022-08-04T10:12:38.733Z,7.18
2022-08-04T10:15:21.449Z,7.68
2022-08-04T10:17:55.494Z,6.65
2022-08-04T10:20:59.007Z,8.55
2022-08-04T10:23:56.378Z,8.30
2022-08-04T10:27:08.543Z,7.90
2022-08-04T10:29:44.218Z,8.00
2022-08-04T10:32:26.149Z,8.05
2022-08-04T10:35:02.766Z,8.75
2022-08-04T10:38:01.104Z,8.13
2022-08-04T10:40:36.832Z,8.13
2022-08-04T10:43:36.519Z,8.20
2022-08-04T11:20:56.171Z,8.07
2022-08-04T11:23:34.279Z,8.57
2022-08-04T11:26:19.929Z,8.13
2022-08-04T11:29:06.115Z,8.48
2022-08-04T11:31:40.788Z,8.63
2022-08-04T11:34:21.544Z,7.68
2022-08-04T11:37:00.809Z,7.85
2022-08-04T11:39:36.695Z,7.70
2022-08-04T11:42:16.852Z,8.05
2022-08-04T11:44:49.759Z,8.32
2022-08-04T11:47:33.336Z,7.13
2022-08-04T11:50:28.489Z,7.95
2022-08-04T11:52:58.676Z,7.30
2022-08-04T11:55:28.784Z,7.60
2022-08-04T11:57:57.741Z,8.75
2022-08-04T12:00:30.202Z,8.57
2022-08-04T12:03:37.783Z,8.40
2022-08-04T12:06:40.091Z,8.93
2022-08-04T12:09:40.934Z,9.32
2022-08-04T12:13:03.384Z,8.38
2022-08-04T12:15:38.141Z,9.48
2022-08-04T12:18:25.399Z,10.07
2022-08-04T12:21:10.512Z,10.43
2022-08-04T12:23:44.132Z,10.75
2022-08-04T12:26:23.456Z,11.10
2022-08-04T12:29:09.976Z,10.00
2022-08-04T12:34:42.368Z,9.07
2022-08-04T12:38:03.022Z,9.07
2022-08-04T12:40:47.102Z,9.68
2022-08-04T12:43:26.707Z,9.68
2022-08-04T12:46:01.232Z,8.57
2022-08-04T12:48:32.293Z,7.70
2022-08-04T12:51:02.459Z,7.10
2022-08-04T12:53:35.540Z,8.00
2022-08-04T12:56:27.154Z,8.40
2022-08-04T12:59:05.659Z,7.72
2022-08-04T13:02:09.076Z,7.75
2022-08-04T13:04:29.361Z,7.18
2022-08-04T13:07:12.113Z,7.95
2022-08-04T13:09:51.595Z,8.27
2022-08-04T13:12:32.355Z,7.82
2022-08-04T13:15:18.068Z,7.55
2022-08-04T13:18:05.083Z,8.65
2022-08-04T13:20:38.217Z,8.23
2022-08-04T13:23:21.427Z,8.27
2022-08-04T13:26:44.252Z,7.72
2022-08-04T13:29:16.262Z,8.43
2022-08-04T13:31:52.851Z,8.38
2022-08-04T13:34:24.102Z,8.38
2022-08-04T13:36:59.550Z,7.72
2022-08-04T13:39:30.998Z,8.38
2022-08-04T13:42:06.917Z,8.07
2022-08-04T13:44:39.420Z,9.35
2022-08-04T13:47:24.006Z,8.52
2022-08-04T13:50:13.847Z,8.70
2022-08-04T13:52:46.851Z,9.27
2022-08-04T13:55:30.301Z,8.98
2022-08-04T13:58:07.769Z,9.05
2022-08-04T14:01:05.405Z,8.40
2022-08-04T14:03:55.877Z,8.10
2022-08-04T14:06:30.858Z,8.75
2022-08-04T14:12:09.750Z,8.80
2022-08-04T14:14:35.562Z,9.07
2022-08-04T14:17:09.944Z,10.05
2022-08-04T14:20:08.620Z,9.48
2022-08-04T14:22:39.023Z,9.93
2022-08-04T14:25:16.443Z,9.77
2022-08-04T14:27:49.327Z,9.43
2022-08-04T14:30:30.613Z,9.85
2022-08-04T14:34:04.421Z,10.65
2022-08-04T14:36:04.677Z,11.48
2022-08-04T14:39:00.530Z,9.30
2022-08-04T14:41:49.634Z,10.32
2022-08-04T14:44:20.908Z,9.50
2022-08-04T14:46:59.845Z,9.93
2022-08-04T14:49:33.796Z,10.18
2022-08-04T14:52:05.714Z,9.65
2022-08-04T14:54:38.780Z,9.50
2022-08-04T14:57:10.788Z,9.77
2022-08-04T15:00:02.495Z,9.63
2022-08-04T15:02:36.396Z,10.90
2022-08-04T15:05:55.549Z,9.95
2022-08-04T15:08:00.092Z,10.63
2022-08-04T15:10:29.726Z,10.57
2022-08-04T15:12:59.361Z,12.00
2022-08-04T15:18:12.929Z,11.75
2022-08-04T15:20:42.756Z,10.43
2022-08-04T15:23:11.952Z,11.43
2022-08-04T15:25:46.398Z,10.00
2022-08-04T15:28:21.584Z,9.47
2022-08-04T15:30:54.918Z,10.23
2022-08-04T15:33:33.580Z,10.85
2022-08-04T15:36:22.805Z,12.20
2022-08-04T15:39:05.835Z,11.50
2022-08-04T15:42:22.411Z,12.93
2022-08-04T15:45:22.591Z,13.45
2022-08-04T15:48:06.175Z,12.02
2022-08-04T15:50:57.143Z,11.63
2022-08-04T15:53:28.670Z,11.73
2022-08-04T15:56:26.472Z,11.60
2022-08-04T15:58:56.408Z,11.55
2022-08-04T16:01:25.665Z,11.73
2022-08-04T16:04:00.946Z,12.05
2022-08-04T16:06:30.679Z,11.50
2022-08-04T16:09:04.518Z,11.85
2022-08-04T16:11:34.316Z,11.60
2022-08-04T16:14:02.419Z,11.57
2022-08-04T16:16:50.323Z,10.98
2022-08-04T16:19:35.213Z,12.73
2022-08-04T16:22:05.164Z,13.02
2022-08-04T16:24:37.506Z,12.48
2022-08-04T16:27:13.427Z,13.38
2022-08-04T16:29:43.181Z,13.52
2022-08-04T16:32:18.867Z,14.70
2022-08-04T16:34:59.368Z,13.57
2022-08-04T16:37:43.186Z,13.45
2022-08-04T16:40:38.212Z,13.80
2022-08-04T16:43:16.315Z,13.57
2022-08-04T16:46:01.093Z,13.07
2022-08-04T16:48:36.437Z,12.50
2022-08-04T16:51:11.131Z,13.43
2022-08-04T16:53:52.672Z,13.05
2022-08-04T16:56:38.068Z,13.88
2022-08-04T16:59:09.666Z,12.88
2022-08-04T17:01:51.332Z,13.68
2022-08-04T17:04:37.151Z,14.00
2022-08-04T17:07:08.041Z,13.00
2022-08-04T17:09:37.663Z,12.90
2022-08-04T17:12:09.765Z,15.23
2022-08-04T17:15:20.079Z,13.30
2022-08-04T17:18:05.686Z,12.65
2022-08-04T17:21:01.845Z,12.15
2022-08-04T17:24:14.404Z,12.65
2022-08-04T17:26:40.360Z,14.60
2022-08-04T17:29:18.241Z,14.73
2022-08-04T17:31:53.422Z,14.23
2022-08-04T17:34:26.655Z,13.88
2022-08-04T17:37:36.551Z,14.27
2022-08-04T17:39:57.182Z,15.20
2022-08-04T17:42:33.334Z,15.30
2022-08-04T17:48:09.278Z,15.60
2022-08-04T17:50:43.395Z,18.60
2022-08-04T17:53:24.116Z,23.23
2022-08-04T17:56:36.306Z,24.98
2022-08-04T17:59:56.667Z,39.80
2022-08-04T18:02:33.068Z,43.97
2022-08-04T18:05:11.289Z,29.25
2022-08-04T18:08:40.214Z,22.85
2022-08-04T18:10:54.355Z,19.10
2022-08-04T18:13:29.492Z,16.10
2022-08-04T18:16:21.888Z,18.13
2022-08-04T18:19:19.089Z,16.42
2022-08-04T18:22:00.019Z,16.23
2022-08-04T18:24:35.038Z,19.45
2022-08-04T18:27:08.068Z,21.55
2022-08-04T18:29:39.086Z,23.30
2022-08-04T18:32:09.998Z,29.23
2022-08-04T18:34:40.800Z,27.67
2022-08-04T18:38:06.404Z,25.30
2022-08-04T18:40:26.611Z,23.70
2022-08-04T18:43:00.925Z,24.58
2022-08-04T18:45:35.381Z,23.80
2022-08-04T18:48:14.426Z,33.72
2022-08-04T18:51:09.111Z,32.75
2022-08-04T18:53:36.877Z,35.45
2022-08-04T18:56:29.376Z,39.20
2022-08-04T18:58:59.840Z,31.00
2022-08-04T19:02:12.432Z,34.17
2022-08-04T19:04:33.953Z,37.08
2022-08-04T19:07:25.164Z,37.67
2022-08-04T19:09:57.806Z,30.08
2022-08-04T19:12:29.001Z,29.85
2022-08-04T19:15:08.883Z,27.58
2022-08-04T19:20:29.706Z,20.85
2022-08-04T19:24:11.378Z,19.58
2022-08-04T19:26:01.261Z,19.17
2022-08-04T19:28:36.299Z,18.27
2022-08-04T19:31:10.183Z,17.85
2022-08-04T19:33:58.929Z,18.23
2022-08-04T19:36:30.999Z,18.77
2022-08-04T19:39:02.712Z,16.38
2022-08-04T19:41:34.109Z,17.10
2022-08-04T19:44:23.466Z,18.40
2022-08-04T19:46:52.351Z,17.90
2022-08-04T19:50:03.008Z,16.85
2022-08-04T19:52:10.289Z,16.70
2022-08-04T19:54:40.820Z,15.40
2022-08-04T19:57:09.320Z,16.15
2022-08-04T19:59:48.159Z,17.92
2022-08-04T20:02:17.205Z,15.27
2022-08-04T20:04:47.416Z,16.75
2022-08-04T20:07:15.928Z,15.00
2022-08-04T20:09:53.327Z,14.98
2022-08-04T20:12:22.721Z,15.40
2022-08-04T20:14:52.857Z,13.43
2022-08-04T20:18:07.749Z,15.35
2022-08-04T20:20:13.477Z,14.73
2022-08-04T20:22:52.088Z,14.55
2022-08-04T20:25:36.807Z,13.60
2022-08-04T20:28:06.946Z,13.45
2022-08-04T20:30:35.131Z,14.35
2022-08-04T20:33:04.408Z,15.88
2022-08-04T20:38:33.059Z,13.38
2022-08-04T20:41:03.183Z,14.18
2022-08-04T20:43:50.690Z,14.63
2022-08-04T20:46:28.603Z,14.88
2022-08-04T20:48:58.718Z,13.38
2022-08-04T20:51:31.973Z,12.82
2022-08-04T20:54:22.979Z,13.82
2022-08-04T20:56:55.867Z,13.15
2022-08-04T20:59:29.891Z,13.90
2022-08-04T21:02:00.052Z,13.35
2022-08-04T21:04:48.472Z,14.40
2022-08-04T21:07:23.466Z,11.98
2022-08-04T21:09:55.632Z,12.52
2022-08-04T21:12:29.631Z,13.18
2022-08-04T21:15:13.123Z,12.73
2022-08-04T21:17:57.997Z,12.13
2022-08-04T21:20:42.718Z,11.70
2022-08-04T21:23:19.461Z,12.43
2022-08-04T21:25:56.225Z,12.07
2022-08-04T21:28:26.905Z,12.73
2022-08-04T21:30:55.969Z,11.60
2022-08-04T21:33:49.002Z,12.48
2022-08-04T21:39:03.390Z,12.75
2022-08-04T21:41:33.590Z,12.60
2022-08-04T21:44:02.112Z,12.10
2022-08-04T21:46:32.884Z,11.77
2022-08-04T21:49:02.425Z,11.60
2022-08-04T21:51:58.610Z,13.18
2022-08-04T21:54:27.420Z,11.80
2022-08-04T21:56:56.025Z,12.23
2022-08-04T21:59:30.532Z,12.10
2022-08-04T22:02:02.024Z,13.25
2022-08-04T22:04:31.204Z,13.13
2022-08-04T22:07:03.193Z,12.20
2022-08-04T22:09:38.695Z,12.68
2022-08-04T22:12:11.910Z,13.52
2022-08-04T22:14:41.500Z,13.93
2022-08-04T22:17:13.349Z,14.15
2022-08-04T22:19:54.783Z,14.52
2022-08-04T22:25:12.308Z,13.73
2022-08-04T22:28:02.705Z,13.70
2022-08-04T22:30:36.532Z,13.75
2022-08-04T22:33:08.260Z,14.00
2022-08-04T22:35:49.519Z,13.55
2022-08-04T22:38:28.860Z,14.40
2022-08-04T22:41:11.563Z,13.57
2022-08-04T22:43:40.828Z,13.20
2022-08-04T22:48:43.445Z,13.70
2022-08-04T22:51:12.918Z,14.10
2022-08-04T22:53:48.960Z,14.35
2022-08-04T22:56:37.817Z,13.57
2022-08-04T22:59:11.489Z,13.65
2022-08-04T23:01:58.977Z,13.57
2022-08-04T23:04:31.045Z,12.32
2022-08-04T23:07:01.419Z,13.55
2022-08-04T23:09:50.352Z,13.23
2022-08-04T23:12:26.209Z,13.48
2022-08-04T23:14:59.218Z,13.75
2022-08-04T23:17:28.918Z,14.15
2022-08-04T23:19:59.532Z,14.15
2022-08-04T23:22:40.962Z,13.18
2022-08-04T23:25:16.945Z,13.38
2022-08-04T23:27:51.038Z,13.93
2022-08-04T23:30:24.463Z,13.65
2022-08-04T23:32:58.778Z,14.90
2022-08-04T23:35:27.492Z,13.68
2022-08-04T23:37:57.397Z,13.02
2022-08-04T23:40:33.372Z,14.30
2022-08-04T23:43:17.558Z,13.57
2022-08-04T23:46:07.031Z,13.98
2022-08-04T23:48:39.019Z,13.95
2022-08-04T23:51:14.871Z,14.20
2022-08-04T23:54:01.574Z,14.45
2022-08-04T23:59:04.572Z,14.00
